Time;durP1;ratioP1;P1;durP2;ratioP2;P2;SDS_P1;SDS_P2;PMS_P1;PMS_P2;Temp;Humidity;BMP_temperature;BMP_pressure;BME280_temperature;BME280_humidity;BME280_pressure;Samples;Min_cycle;Max_cycle;Signal;HPM_P1;HPM_P2
2023/12/24 00:02:33;;;;;;;4.38;1.00;;;;;;;10.19;100.00;99394.19;12215941;19;20018;-80
2023/12/24 00:06:38;;;;;;;4.35;1.35;;;;;;;10.17;100.00;99386.22;12191120;19;20029;-80
2023/12/24 00:10:40;;;;;;;2.17;0.77;;;;;;;10.21;100.00;99386.53;12254756;19;20002;-82
2023/12/24 00:14:43;;;;;;;3.00;0.80;;;;;;;10.19;100.00;99384.00;12252094;19;20255;-83
2023/12/24 00:18:45;;;;;;;2.03;1.10;;;;;;;10.17;100.00;99377.94;12236884;19;20385;-81
2023/12/24 00:23:05;;;;;;;4.70;1.10;;;;;;;10.18;100.00;99360.34;12255273;19;20010;-82
2023/12/24 00:27:07;;;;;;;2.42;0.98;;;;;;;10.18;100.00;99357.59;12200799;19;20007;-80
2023/12/24 00:31:10;;;;;;;2.47;1.05;;;;;;;10.30;100.00;99348.38;12207181;19;20014;-81
2023/12/24 00:35:12;;;;;;;2.38;0.95;;;;;;;10.33;100.00;99347.84;12212318;19;20126;-81
2023/12/24 00:39:14;;;;;;;5.07;1.00;;;;;;;10.31;100.00;99339.00;12225108;19;20014;-82
2023/12/24 00:43:16;;;;;;;2.47;0.93;;;;;;;10.38;100.00;99331.38;12256949;19;20252;-82
2023/12/24 00:47:19;;;;;;;2.13;0.90;;;;;;;10.39;100.00;99328.38;12251696;19;20039;-81
2023/12/24 00:51:24;;;;;;;2.05;1.00;;;;;;;10.35;100.00;99334.63;12219107;19;20011;-82
2023/12/24 00:55:27;;;;;;;2.63;1.00;;;;;;;10.38;100.00;99340.47;12219807;19;20018;-80
2023/12/24 00:59:29;;;;;;;2.50;0.70;;;;;;;10.33;100.00;99337.66;12238883;19;19995;-82
2023/12/24 01:03:31;;;;;;;2.07;1.20;;;;;;;10.38;100.00;99343.25;12219259;19;20488;-80
2023/12/24 01:07:34;;;;;;;0.73;0.70;;;;;;;10.37;100.00;99340.72;12214587;19;20018;-79
2023/12/24 01:11:35;;;;;;;1.77;0.88;;;;;;;10.38;100.00;99343.25;12211179;19;20019;-79
2023/12/24 01:15:37;;;;;;;0.83;0.73;;;;;;;10.39;100.00;99341.31;12188519;19;20019;-80
2023/12/24 01:19:40;;;;;;;2.40;0.77;;;;;;;10.38;100.00;99359.75;12220658;19;20027;-81
2023/12/24 01:23:42;;;;;;;2.35;0.95;;;;;;;10.37;100.00;99349.81;12220394;19;20010;-82
2023/12/24 01:27:44;;;;;;;3.43;0.80;;;;;;;10.38;100.00;99367.16;12196459;19;20007;-80
2023/12/24 01:31:46;;;;;;;1.13;0.80;;;;;;;10.37;100.00;99357.25;12217250;19;20003;-79
2023/12/24 01:35:48;;;;;;;;;;;;;;;10.42;100.00;99373.84;12192482;19;20007;-80
2023/12/24 01:39:50;;;;;;;2.67;1.08;;;;;;;10.41;100.00;99391.44;12213891;19;20245;-82
2023/12/24 01:43:54;;;;;;;1.23;0.80;;;;;;;10.36;100.00;99394.16;12208964;19;20002;-83
2023/12/24 01:47:58;;;;;;;1.80;0.93;;;;;;;10.45;100.00;99398.13;12193843;19;20440;-80
2023/12/24 01:52:01;;;;;;;1.75;0.90;;;;;;;10.49;100.00;99399.25;12211804;19;20044;-81
2023/12/24 01:56:05;;;;;;;1.38;0.80;;;;;;;10.48;100.00;99398.41;12209508;19;20015;-83
2023/12/24 02:00:10;;;;;;;1.67;0.90;;;;;;;10.47;100.00;99404.19;12194556;19;20082;-82
2023/12/24 02:04:14;;;;;;;1.88;0.80;;;;;;;10.49;100.00;99397.31;12217063;19;20018;-80
2023/12/24 02:08:21;;;;;;;2.75;0.82;;;;;;;10.47;100.00;99396.75;12213213;19;20458;-81
2023/12/24 02:12:23;;;;;;;1.58;0.50;;;;;;;10.46;100.00;99405.28;12191741;19;20481;-80
2023/12/24 02:16:38;;;;;;;2.50;0.60;;;;;;;10.46;100.00;99397.84;12208230;19;20497;-83
2023/12/24 02:20:40;;;;;;;3.58;0.98;;;;;;;10.50;100.00;99392.66;12214733;19;20078;-82
2023/12/24 02:24:45;;;;;;;1.20;0.73;;;;;;;10.45;100.00;99401.69;12194941;19;20462;-81
2023/12/24 02:29:05;;;;;;;1.55;0.73;;;;;;;10.43;100.00;99401.09;12212652;19;20060;-80
2023/12/24 02:33:09;;;;;;;2.05;0.98;;;;;;;10.43;100.00;99395.59;12191475;19;20015;-83
2023/12/24 02:37:12;;;;;;;3.03;0.65;;;;;;;10.35;100.00;99395.22;12215301;19;20014;-84
2023/12/24 02:41:14;;;;;;;;;;;;;;;10.31;100.00;99394.91;12219121;19;20070;-83
2023/12/24 02:45:16;;;;;;;2.00;0.73;;;;;;;10.33;100.00;99403.75;12227407;19;19911;-84
2023/12/24 02:49:18;;;;;;;1.33;0.73;;;;;;;10.42;100.00;99390.38;12230130;19;20015;-83
2023/12/24 02:53:23;;;;;;;1.25;0.70;;;;;;;10.36;100.00;99383.13;12215046;19;20035;-81
2023/12/24 02:57:26;;;;;;;1.55;0.70;;;;;;;10.31;100.00;99380.31;12193409;19;20364;-80
2023/12/24 03:01:28;;;;;;;2.17;0.63;;;;;;;10.25;100.00;99358.19;12220281;19;20025;-82
2023/12/24 03:05:29;;;;;;;2.88;0.75;;;;;;;10.14;100.00;99375.72;12211377;19;20006;-82
2023/12/24 03:09:32;;;;;;;1.77;0.60;;;;;;;10.11;100.00;99376.19;12188370;19;20002;-84
2023/12/24 03:13:34;;;;;;;2.08;0.80;;;;;;;10.10;100.00;99390.25;12211485;19;20461;-84
2023/12/24 03:17:38;;;;;;;2.28;1.23;;;;;;;10.06;100.00;99381.66;12208062;19;20039;-79
2023/12/24 03:21:42;;;;;;;1.70;0.88;;;;;;;10.03;100.00;99383.00;12184515;19;20843;-83
2023/12/24 03:25:43;;;;;;;1.65;0.90;;;;;;;10.02;100.00;99364.84;12203941;19;20014;-83
2023/12/24 03:29:45;;;;;;;1.20;0.40;;;;;;;10.08;100.00;99362.13;12208272;19;20035;-82
2023/12/24 03:33:49;;;;;;;0.73;0.40;;;;;;;10.10;100.00;99346.19;12184637;19;20355;-82
2023/12/24 03:37:52;;;;;;;1.20;0.63;;;;;;;10.12;100.00;99336.59;12206396;19;20006;-86
2023/12/24 03:41:54;;;;;;;1.92;0.82;;;;;;;10.06;100.00;99312.84;12186828;19;20093;-81
2023/12/24 03:45:57;;;;;;;2.10;1.15;;;;;;;10.03;100.00;99300.44;12206726;19;20366;-81
2023/12/24 03:49:59;;;;;;;1.88;0.50;;;;;;;10.06;100.00;99295.50;12207699;19;20036;-81
2023/12/24 03:54:01;;;;;;;1.17;0.67;;;;;;;9.96;100.00;99287.94;12181126;19;20010;-82
2023/12/24 03:58:06;;;;;;;2.05;0.80;;;;;;;9.97;100.00;99245.59;12204435;19;20011;-81
2023/12/24 04:02:09;;;;;;;1.13;1.00;;;;;;;9.98;100.00;99258.25;12209114;19;20344;-84
2023/12/24 04:06:16;;;;;;;2.03;1.00;;;;;;;10.03;100.00;99263.81;12182839;19;20082;-81
2023/12/24 04:10:18;;;;;;;1.00;0.77;;;;;;;9.99;100.00;99266.25;12204502;19;20011;-79
2023/12/24 04:14:20;;;;;;;1.87;1.13;;;;;;;10.11;100.00;99270.75;12227585;19;20039;-80
2023/12/24 04:18:23;;;;;;;3.85;1.10;;;;;;;10.11;100.00;99263.31;12211062;19;20010;-83
2023/12/24 04:22:25;;;;;;;2.13;0.90;;;;;;;10.18;100.00;99274.16;12219608;19;20014;-82
2023/12/24 04:26:26;;;;;;;2.67;1.05;;;;;;;10.18;100.00;99263.13;12205061;19;20655;-83
2023/12/24 04:30:29;;;;;;;2.03;0.82;;;;;;;10.12;100.00;99259.50;12182010;19;20082;-79
2023/12/24 04:34:35;;;;;;;1.95;0.82;;;;;;;10.19;100.00;99248.28;12203008;19;20018;-87
2023/12/24 04:38:38;;;;;;;2.78;0.70;;;;;;;10.20;100.00;99237.00;12208181;19;20010;-81
2023/12/24 04:42:40;;;;;;;2.08;0.50;;;;;;;10.18;100.00;99235.59;12185828;19;20024;-80
2023/12/24 04:46:46;;;;;;;1.17;0.60;;;;;;;10.15;100.00;99247.16;12211246;19;20371;-80
2023/12/24 04:50:47;;;;;;;0.75;0.50;;;;;;;10.09;100.00;99253.69;12254450;19;20018;-86
2023/12/24 04:54:50;;;;;;;1.48;0.73;;;;;;;10.21;100.00;99248.84;12244563;19;20027;-84
2023/12/24 04:58:53;;;;;;;1.23;0.97;;;;;;;10.18;100.00;99252.13;12261770;19;20010;-81
2023/12/24 05:02:58;;;;;;;0.88;0.57;;;;;;;10.22;100.00;99233.97;12196510;19;20018;-85
2023/12/24 05:07:02;;;;;;;0.70;0.70;;;;;;;10.16;100.00;99233.09;12217200;19;20014;-80
2023/12/24 05:11:08;;;;;;;1.63;0.73;;;;;;;10.24;100.00;99237.31;12219029;19;20390;-85
2023/12/24 05:15:09;;;;;;;0.85;0.50;;;;;;;10.16;100.00;99240.53;12190597;19;20935;-83
2023/12/24 05:19:12;;;;;;;1.10;0.70;;;;;;;10.18;100.00;99243.88;12213459;19;20010;-81
2023/12/24 05:23:16;;;;;;;0.77;0.55;;;;;;;10.15;100.00;99255.41;12220000;19;20448;-83
2023/12/24 05:27:21;;;;;;;0.70;0.50;;;;;;;10.07;100.00;99237.41;12192508;19;20014;-81
2023/12/24 05:31:23;;;;;;;1.07;0.50;;;;;;;10.08;100.00;99235.50;12219673;19;20027;-84
2023/12/24 05:35:25;;;;;;;0.88;0.70;;;;;;;10.13;100.00;99244.63;12221833;19;20550;-80
2023/12/24 05:39:28;;;;;;;0.80;0.50;;;;;;;10.07;100.00;99233.84;12194218;19;20006;-83
2023/12/24 05:43:31;;;;;;;1.45;0.70;;;;;;;10.01;100.00;99235.72;12218085;19;20096;-81
2023/12/24 05:47:34;;;;;;;0.60;0.40;;;;;;;10.00;100.00;99243.16;12219465;19;20010;-82
2023/12/24 05:51:37;;;;;;;0.95;0.40;;;;;;;9.95;100.00;99245.84;12195921;19;20075;-83
2023/12/24 05:55:39;;;;;;;1.20;0.50;;;;;;;9.85;100.00;99256.75;12210250;19;20054;-83
2023/12/24 05:59:41;;;;;;;1.60;0.50;;;;;;;9.66;100.00;99236.16;12217389;19;20021;-84
2023/12/24 06:03:43;;;;;;;0.73;0.50;;;;;;;9.47;100.00;99244.75;12202101;19;20018;-83
2023/12/24 06:07:45;;;;;;;1.07;0.50;;;;;;;9.25;100.00;99238.41;12254050;19;20023;-82
2023/12/24 06:11:47;;;;;;;1.30;0.50;;;;;;;9.11;100.00;99248.97;12213279;19;20010;-83
2023/12/24 06:15:50;;;;;;;1.13;0.52;;;;;;;9.08;100.00;99250.31;12186313;19;20487;-82
2023/12/24 06:19:53;;;;;;;0.80;0.47;;;;;;;9.00;100.00;99250.72;12209764;19;20019;-82
2023/12/24 06:23:56;;;;;;;0.82;0.45;;;;;;;8.95;100.00;99260.81;12184700;19;20007;-82
2023/12/24 06:27:59;;;;;;;1.35;0.60;;;;;;;8.92;100.00;99256.66;12207333;19;20003;-81
2023/12/24 06:32:01;;;;;;;2.33;0.70;;;;;;;8.88;100.00;99250.00;12207591;19;20477;-81
2023/12/24 06:36:07;;;;;;;0.82;0.50;;;;;;;8.87;100.00;99259.34;12190837;19;20053;-81
2023/12/24 06:40:09;;;;;;;1.95;0.70;;;;;;;8.81;100.00;99252.13;12205843;19;20011;-82
2023/12/24 06:44:12;;;;;;;1.88;0.65;;;;;;;8.79;100.00;99252.34;12205168;19;20010;-80
2023/12/24 06:48:14;;;;;;;;;;;;;;;8.81;100.00;99254.88;12185059;19;20014;-82
2023/12/24 06:52:16;;;;;;;2.08;0.47;;;;;;;8.80;100.00;99251.25;12208208;19;19914;-80
2023/12/24 06:56:18;;;;;;;3.42;0.65;;;;;;;8.81;100.00;99246.63;12202841;19;20007;-80
2023/12/24 07:00:22;;;;;;;1.13;0.80;;;;;;;8.82;100.00;99251.03;12184838;19;20002;-80
2023/12/24 07:04:24;;;;;;;0.98;0.70;;;;;;;8.81;100.00;99244.69;12200870;19;20100;-80
2023/12/24 07:08:31;;;;;;;1.80;0.80;;;;;;;8.80;100.00;99240.25;12204290;19;20018;-81
2023/12/24 07:12:35;;;;;;;2.72;0.70;;;;;;;8.82;100.00;99242.78;12179377;19;20056;-80
2023/12/24 07:16:43;;;;;;;1.45;0.60;;;;;;;8.84;100.00;99240.63;12204219;19;20017;-78
2023/12/24 07:20:45;;;;;;;1.67;0.68;;;;;;;8.82;100.00;99238.09;12203374;19;20022;-79
2023/12/24 07:24:47;;;;;;;1.10;0.77;;;;;;;8.84;100.00;99232.38;12179508;19;20011;-80
2023/12/24 07:28:49;;;;;;;1.00;0.60;;;;;;;8.80;100.00;99225.72;12199331;19;20415;-78
2023/12/24 07:32:53;;;;;;;1.75;0.88;;;;;;;8.84;100.00;99244.19;12176510;19;20039;-78
2023/12/24 07:36:56;;;;;;;2.78;0.65;;;;;;;8.84;100.00;99243.38;12199015;19;20087;-81
2023/12/24 07:40:57;;;;;;;1.05;0.60;;;;;;;8.88;100.00;99239.03;12207677;19;20007;-82
2023/12/24 07:45:00;;;;;;;;;;;;;;;8.87;100.00;99235.44;12186869;19;20007;-79
2023/12/24 07:49:03;;;;;;;1.15;0.63;;;;;;;8.89;100.00;99240.66;12206904;19;19915;-81
2023/12/24 07:53:05;;;;;;;1.48;0.75;;;;;;;8.88;100.00;99237.09;12209042;19;20097;-80
2023/12/24 07:57:07;;;;;;;0.70;0.50;;;;;;;8.88;100.00;99244.50;12188433;19;20024;-81
2023/12/24 08:01:09;;;;;;;0.82;0.47;;;;;;;8.83;100.00;99247.19;12208102;19;20003;-81
2023/12/24 08:05:12;;;;;;;3.72;0.82;;;;;;;8.83;100.00;99249.94;12207825;19;20478;-81
2023/12/24 08:09:15;;;;;;;1.15;0.70;;;;;;;8.82;100.00;99245.53;12185485;19;20021;-81
2023/12/24 08:13:17;;;;;;;2.85;0.80;;;;;;;8.88;100.00;99245.34;12209377;19;20006;-82
2023/12/24 08:17:21;;;;;;;1.27;0.70;;;;;;;8.90;100.00;99237.69;12205443;19;20011;-81
2023/12/24 08:21:23;;;;;;;2.43;0.70;;;;;;;8.92;100.00;99242.09;12188230;19;20438;-81
2023/12/24 08:25:28;;;;;;;1.27;0.60;;;;;;;8.99;100.00;99240.84;12205883;19;20010;-80
2023/12/24 08:29:32;;;;;;;1.42;0.80;;;;;;;9.04;100.00;99243.66;12200618;19;20031;-81
2023/12/24 08:33:34;;;;;;;1.10;0.65;;;;;;;9.06;100.00;99246.97;12172234;19;20043;-81
2023/12/24 08:37:38;;;;;;;1.00;0.70;;;;;;;9.05;100.00;99245.31;12195396;19;20007;-82
2023/12/24 08:41:43;;;;;;;0.82;0.50;;;;;;;9.07;100.00;99236.81;12200207;19;20031;-80
2023/12/24 08:45:46;;;;;;;1.85;0.73;;;;;;;9.08;100.00;99243.97;12181753;19;20402;-82
2023/12/24 08:49:48;;;;;;;1.38;0.77;;;;;;;8.97;100.00;99236.66;12203071;19;20010;-81
2023/12/24 08:53:50;;;;;;;0.63;0.57;;;;;;;8.98;100.00;99236.41;12207525;19;20014;-81
2023/12/24 08:57:52;;;;;;;0.97;0.50;;;;;;;8.96;100.00;99243.25;12181642;19;19999;-82
2023/12/24 09:01:55;;;;;;;0.63;0.47;;;;;;;8.99;100.00;99240.84;12207507;19;19998;-79
2023/12/24 09:05:57;;;;;;;1.13;0.55;;;;;;;9.05;100.00;99245.31;12178639;19;20019;-79
2023/12/24 09:10:01;;;;;;;1.88;0.60;;;;;;;9.08;100.00;99243.97;12196707;19;20469;-79
2023/12/24 09:14:04;;;;;;;1.58;0.63;;;;;;;9.13;100.00;99255.88;12189795;19;20014;-79
2023/12/24 09:18:06;;;;;;;0.90;0.63;;;;;;;9.14;100.00;99253.97;12172509;19;20478;-79
2023/12/24 09:22:08;;;;;;;1.57;0.90;;;;;;;9.19;100.00;99256.78;12188607;19;20244;-79
2023/12/24 09:26:12;;;;;;;0.98;0.50;;;;;;;9.25;100.00;99250.25;12201406;19;20010;-78
2023/12/24 09:30:14;;;;;;;0.50;0.50;;;;;;;9.25;100.00;99258.50;12206018;19;20022;-79
2023/12/24 09:34:16;;;;;;;1.00;0.70;;;;;;;9.20;100.00;99252.13;12189836;19;20017;-80
2023/12/24 09:38:19;;;;;;;0.80;0.60;;;;;;;9.30;100.00;99239.31;12195266;19;20007;-80
2023/12/24 09:42:22;;;;;;;0.73;0.60;;;;;;;9.31;100.00;99242.88;12192536;19;20003;-80
2023/12/24 09:46:24;;;;;;;0.95;0.45;;;;;;;9.37;100.00;99233.66;12221698;19;20010;-80
2023/12/24 09:50:30;;;;;;;0.93;0.60;;;;;;;9.37;100.00;99236.41;12228395;19;20007;-81
2023/12/24 09:54:32;;;;;;;2.00;0.70;;;;;;;9.37;100.00;99241.91;12198630;19;20054;-80
2023/12/24 09:58:41;;;;;;;0.73;0.47;;;;;;;9.38;100.00;99239.97;12234993;19;20011;-77
2023/12/24 10:02:44;;;;;;;2.47;0.75;;;;;;;9.39;100.00;99238.88;12241856;19;20010;-78
2023/12/24 10:06:55;;;;;;;1.77;0.70;;;;;;;9.41;100.00;99243.03;12218680;19;20002;-78
2023/12/24 10:11:12;;;;;;;0.85;0.50;;;;;;;9.43;100.00;99229.88;12239458;19;20006;-79
2023/12/24 10:15:19;;;;;;;0.93;0.55;;;;;;;9.45;100.00;99233.16;12211713;19;20014;-78
2023/12/24 10:19:27;;;;;;;0.88;0.50;;;;;;;9.44;100.00;99233.44;12244253;19;20053;-79
2023/12/24 10:23:32;;;;;;;0.63;0.32;;;;;;;9.45;100.00;99232.34;12233395;19;20030;-79
2023/12/24 10:27:34;;;;;;;1.20;0.70;;;;;;;9.45;100.00;99224.91;12218506;19;20053;-79
2023/12/24 10:31:49;;;;;;;2.03;0.68;;;;;;;9.54;100.00;99220.63;12220883;19;20030;-78
2023/12/24 10:35:57;;;;;;;1.73;0.90;;;;;;;9.58;100.00;99219.03;12186275;19;20017;-78
2023/12/24 10:40:08;;;;;;;2.58;0.63;;;;;;;9.59;100.00;99228.13;12194051;19;20006;-78
2023/12/24 10:44:10;;;;;;;1.65;0.52;;;;;;;9.61;100.00;99216.84;12205647;19;20009;-81
2023/12/24 10:48:14;;;;;;;1.08;0.70;;;;;;;9.58;100.00;99227.28;12188740;19;20908;-80
2023/12/24 10:52:16;;;;;;;1.70;0.63;;;;;;;9.65;100.00;99205.06;12209320;19;20364;-81
2023/12/24 10:56:27;;;;;;;0.80;0.30;;;;;;;9.69;100.00;99197.97;12205626;19;20015;-80
2023/12/24 11:00:32;;;;;;;0.85;0.32;;;;;;;9.76;100.00;99201.34;12182940;19;20470;-80
2023/12/24 11:04:45;;;;;;;0.82;0.50;;;;;;;9.82;100.00;99208.56;12202680;19;20045;-81
2023/12/24 11:08:53;;;;;;;0.45;0.32;;;;;;;9.96;100.00;99195.19;12205307;19;20027;-80
2023/12/24 11:12:56;;;;;;;0.35;0.35;;;;;;;10.11;100.00;99190.94;12181715;19;20013;-80
2023/12/24 11:17:09;;;;;;;0.45;0.35;;;;;;;10.15;100.00;99181.91;12208654;19;20018;-79
2023/12/24 11:21:13;;;;;;;0.77;0.50;;;;;;;10.21;100.00;99172.59;12189931;19;20128;-80
2023/12/24 11:25:16;;;;;;;0.40;0.20;;;;;;;10.30;100.00;99189.47;12203003;19;20820;-80
2023/12/24 11:29:52;;;;;;;1.13;0.10;;;;;;;10.34;100.00;99179.59;12206335;19;20073;-79
2023/12/24 11:33:56;;;;;;;0.20;0.20;;;;;;;10.44;100.00;99176.06;12187374;19;20023;-79
2023/12/24 11:38:39;;;;;;;0.20;0.20;;;;;;;10.50;100.00;99169.53;12208465;19;20003;-81
2023/12/24 11:42:46;;;;;;;0.38;0.30;;;;;;;10.46;100.00;99144.41;12183072;19;20346;-78
2023/12/24 11:46:49;;;;;;;1.02;0.40;;;;;;;10.48;100.00;99141.41;12200393;19;20003;-79
2023/12/24 11:51:06;;;;;;;0.20;0.20;;;;;;;10.55;100.00;99155.78;12206114;19;20359;-79
2023/12/24 11:55:10;;;;;;;0.82;0.40;;;;;;;10.59;100.00;99161.56;12182334;19;20022;-79
2023/12/24 11:59:13;;;;;;;0.20;0.20;;;;;;;10.58;100.00;99169.00;12205067;19;20446;-79
2023/12/24 12:03:18;;;;;;;0.30;0.20;;;;;;;10.58;100.00;99168.19;12187216;19;20042;-79
2023/12/24 12:07:19;;;;;;;0.20;0.20;;;;;;;10.53;100.00;99170.91;12225941;19;20026;-80
2023/12/24 12:11:22;;;;;;;0.55;0.30;;;;;;;10.61;100.00;99164.91;12234645;19;20028;-83
2023/12/24 12:15:26;;;;;;;0.95;0.43;;;;;;;10.53;100.00;99154.38;12214093;19;19999;-80
2023/12/24 12:19:29;;;;;;;0.98;0.40;;;;;;;10.55;100.00;99166.78;12215126;19;20431;-81
2023/12/24 12:23:32;;;;;;;0.40;0.30;;;;;;;10.61;100.00;99153.88;12205519;19;20003;-80
2023/12/24 12:27:35;;;;;;;0.60;0.28;;;;;;;10.56;100.00;99146.44;12181950;19;20014;-80
2023/12/24 12:31:37;;;;;;;0.30;0.30;;;;;;;10.63;100.00;99149.78;12203185;19;20011;-80
2023/12/24 12:35:42;;;;;;;0.20;0.20;;;;;;;10.65;100.00;99155.84;12204236;19;20006;-80
2023/12/24 12:39:44;;;;;;;0.23;0.23;;;;;;;10.63;100.00;99158.03;12179622;19;20043;-80
2023/12/24 12:43:54;;;;;;;0.20;0.20;;;;;;;10.71;100.00;99162.22;12183191;19;20021;-78
2023/12/24 12:47:56;;;;;;;0.20;0.20;;;;;;;10.67;100.00;99152.81;12197848;19;20010;-80
2023/12/24 12:52:03;;;;;;;0.63;0.35;;;;;;;10.79;100.00;99147.09;12177277;19;20375;-79
2023/12/24 12:56:07;;;;;;;0.20;0.20;;;;;;;10.77;100.00;99141.88;12192600;19;20064;-80
2023/12/24 13:00:21;;;;;;;0.30;0.30;;;;;;;10.82;100.00;99147.38;12196479;19;20102;-80
2023/12/24 13:04:30;;;;;;;1.00;0.40;;;;;;;10.78;100.00;99140.75;12177168;19;20766;-82
2023/12/24 13:08:32;;;;;;;0.30;0.20;;;;;;;10.84;100.00;99152.66;12199907;19;20066;-81
2023/12/24 13:12:38;;;;;;;0.52;0.30;;;;;;;10.88;100.00;99151.81;12178419;19;20014;-80
2023/12/24 13:16:41;;;;;;;0.20;0.20;;;;;;;10.94;100.00;99145.22;12216701;19;20071;-81
2023/12/24 13:20:51;;;;;;;0.85;0.35;;;;;;;10.98;100.00;99150.25;12219703;19;20094;-80
2023/12/24 13:24:58;;;;;;;1.67;0.80;;;;;;;11.07;100.00;99154.97;12202929;19;20035;-81
2023/12/24 13:29:00;;;;;;;1.73;0.70;;;;;;;11.08;100.00;99144.75;12235713;19;20012;-80
2023/12/24 13:33:04;;;;;;;0.68;0.40;;;;;;;11.09;100.00;99141.72;12240641;19;20011;-79
2023/12/24 13:37:14;;;;;;;0.52;0.40;;;;;;;11.06;100.00;99153.28;12182512;19;20188;-80
2023/12/24 13:41:16;;;;;;;0.70;0.38;;;;;;;11.05;100.00;99143.38;12242326;19;20003;-83
2023/12/24 13:45:18;;;;;;;1.40;0.30;;;;;;;11.05;100.00;99145.31;12238049;19;19998;-81
2023/12/24 13:49:20;;;;;;;1.00;0.60;;;;;;;11.03;100.00;99136.47;12228241;19;20011;-81
2023/12/24 13:53:23;;;;;;;0.88;0.30;;;;;;;11.04;100.00;99127.09;12251128;19;20147;-81
2023/12/24 13:57:36;;;;;;;1.65;0.57;;;;;;;11.02;100.00;99123.78;12222121;19;20010;-80
2023/12/24 14:01:40;;;;;;;0.55;0.40;;;;;;;11.02;100.00;99121.03;12217922;19;20006;-80
2023/12/24 14:05:42;;;;;;;0.60;0.40;;;;;;;11.00;100.00;99125.97;12213135;19;20014;-79
2023/12/24 14:09:49;;;;;;;2.90;0.57;;;;;;;10.97;100.00;99121.81;12191629;19;20007;-81
2023/12/24 14:14:00;;;;;;;0.82;0.50;;;;;;;10.77;100.00;99111.56;12211562;19;20042;-80
2023/12/24 14:18:03;;;;;;;0.73;0.43;;;;;;;10.78;100.00;99104.94;12211451;19;20018;-78
2023/12/24 14:22:06;;;;;;;0.40;0.35;;;;;;;10.71;100.00;99113.44;12189166;19;20064;-80
2023/12/24 14:26:08;;;;;;;0.70;0.30;;;;;;;10.66;100.00;99112.59;12201859;19;20826;-79
2023/12/24 14:30:17;;;;;;;1.00;0.40;;;;;;;10.54;100.00;99123.00;12210764;19;20027;-79
2023/12/24 14:34:19;;;;;;;0.50;0.30;;;;;;;10.42;100.00;99110.25;12182248;19;20018;-80
2023/12/24 14:38:21;;;;;;;0.30;0.30;;;;;;;10.43;100.00;99109.16;12203442;19;20243;-81
2023/12/24 14:42:23;;;;;;;2.28;0.47;;;;;;;10.52;100.00;99114.16;12190781;19;20043;-80
2023/12/24 14:46:26;;;;;;;0.68;0.40;;;;;;;10.51;100.00;99129.03;12178699;19;20054;-79
2023/12/24 14:50:28;;;;;;;0.38;0.38;;;;;;;10.46;100.00;99130.66;12194919;19;20010;-79
2023/12/24 14:54:35;;;;;;;0.85;0.52;;;;;;;10.43;100.00;99122.91;12176245;19;20031;-78
2023/12/24 14:58:37;;;;;;;2.27;0.53;;;;;;;10.46;100.00;99125.13;12198253;19;20113;-80
2023/12/24 15:02:43;;;;;;;2.08;0.60;;;;;;;10.47;100.00;99137.00;12197899;19;21671;-78
2023/12/24 15:06:47;;;;;;;2.67;0.45;;;;;;;10.49;100.00;99141.13;12176792;19;20042;-80
2023/12/24 15:10:49;;;;;;;0.60;0.30;;;;;;;10.53;100.00;99144.22;12196203;19;20021;-78
2023/12/24 15:14:51;;;;;;;3.43;1.10;;;;;;;10.59;100.00;99139.53;12207253;19;20011;-80
2023/12/24 15:18:53;;;;;;;4.73;1.60;;;;;;;10.61;100.00;99140.09;12211536;19;21042;-80
2023/12/24 15:22:56;;;;;;;;;;;;;;;10.60;100.00;99142.03;12242710;19;20734;-80
2023/12/24 15:26:58;;;;;;;0.40;0.32;;;;;;;10.59;100.00;99126.63;12238879;19;19954;-79
2023/12/24 15:31:07;;;;;;;0.65;0.30;;;;;;;10.63;100.00;99118.63;12214017;19;20026;-80
2023/12/24 15:35:17;;;;;;;0.80;0.50;;;;;;;10.70;100.00;99120.03;12206897;19;20011;-81
2023/12/24 15:39:19;;;;;;;0.75;0.40;;;;;;;10.77;100.00;99133.59;12214693;19;20007;-80
2023/12/24 15:43:21;;;;;;;0.77;0.40;;;;;;;10.83;100.00;99126.19;12182448;19;20006;-80
2023/12/24 15:47:23;;;;;;;0.90;0.45;;;;;;;10.87;100.00;99117.09;12202838;19;20034;-79
2023/12/24 15:51:28;;;;;;;1.40;0.52;;;;;;;10.89;100.00;99125.13;12190065;19;20573;-83
2023/12/24 15:55:30;;;;;;;2.08;0.60;;;;;;;10.86;100.00;99115.44;12201760;19;20554;-79
2023/12/24 15:59:33;;;;;;;0.60;0.55;;;;;;;10.87;100.00;99116.28;12196659;19;20015;-78
2023/12/24 16:03:35;;;;;;;0.90;0.40;;;;;;;10.93;100.00;99120.72;12187638;19;20089;-81
2023/12/24 16:07:38;;;;;;;0.85;0.50;;;;;;;10.96;100.00;99128.44;12209817;19;20086;-79
2023/12/24 16:11:39;;;;;;;1.20;0.50;;;;;;;10.97;100.00;99124.56;12209295;19;20010;-80
2023/12/24 16:15:42;;;;;;;1.73;0.90;;;;;;;10.90;100.00;99135.84;12191956;19;20392;-81
2023/12/24 16:19:50;;;;;;;0.50;0.50;;;;;;;10.97;100.00;99118.25;12208571;19;20407;-80
2023/12/24 16:23:53;;;;;;;;;;;;;;;10.95;100.00;99124.88;12213591;19;20026;-80
2023/12/24 16:27:55;;;;;;;0.85;0.40;;;;;;;10.95;100.00;99130.38;12193691;19;19911;-79
2023/12/24 16:31:59;;;;;;;0.88;0.50;;;;;;;11.02;100.00;99129.28;12234289;19;20014;-79
2023/12/24 16:36:05;;;;;;;0.47;0.47;;;;;;;11.00;100.00;99101.16;12230923;19;20014;-80
2023/12/24 16:40:08;;;;;;;0.75;0.63;;;;;;;10.89;100.00;99103.06;12204412;19;20025;-81
2023/12/24 16:44:11;;;;;;;1.55;0.60;;;;;;;10.92;100.00;99114.38;12225471;19;20010;-80
2023/12/24 16:48:15;;;;;;;0.82;0.50;;;;;;;10.92;100.00;99106.09;12212933;19;20010;-80
2023/12/24 16:52:17;;;;;;;1.07;0.63;;;;;;;10.92;100.00;99108.03;12184111;19;20037;-82
2023/12/24 16:56:21;;;;;;;1.23;0.68;;;;;;;11.00;100.00;99109.44;12224125;19;20304;-82
2023/12/24 17:00:24;;;;;;;0.30;0.30;;;;;;;10.99;100.00;99102.28;12209568;19;20023;-80
2023/12/24 17:04:27;;;;;;;3.20;0.77;;;;;;;11.09;100.00;99107.81;12185050;19;20535;-80
2023/12/24 17:08:38;;;;;;;0.60;0.47;;;;;;;11.12;100.00;99129.31;12208373;19;20038;-81
2023/12/24 17:12:43;;;;;;;1.25;0.60;;;;;;;11.10;100.00;99103.97;12187752;19;20007;-79
2023/12/24 17:16:45;;;;;;;0.80;0.50;;;;;;;11.09;100.00;99105.03;12204004;19;20007;-80
2023/12/24 17:20:47;;;;;;;1.15;0.68;;;;;;;11.16;100.00;99102.88;12205647;19;20077;-81
2023/12/24 17:24:50;;;;;;;1.25;0.60;;;;;;;11.15;100.00;99117.75;12182945;19;20010;-81
2023/12/24 17:28:54;;;;;;;0.80;0.57;;;;;;;11.16;100.00;99120.25;12205156;19;20014;-83
2023/12/24 17:32:56;;;;;;;0.70;0.37;;;;;;;11.17;100.00;99127.41;12206878;19;20489;-83
2023/12/24 17:36:59;;;;;;;0.30;0.30;;;;;;;11.21;100.00;99133.22;12178425;19;20002;-79
2023/12/24 17:41:01;;;;;;;1.60;0.60;;;;;;;11.17;100.00;99134.88;12203422;19;20028;-79
2023/12/24 17:45:05;;;;;;;1.27;0.60;;;;;;;11.17;100.00;99121.06;12200685;19;20278;-78
2023/12/24 17:49:10;;;;;;;1.02;0.52;;;;;;;11.21;100.00;99127.69;12174007;19;21359;-80
2023/12/24 17:53:13;;;;;;;1.55;0.40;;;;;;;11.19;100.00;99118.88;12200024;19;20056;-80
2023/12/24 17:57:19;;;;;;;0.88;0.60;;;;;;;11.20;100.00;99089.38;12198293;19;20011;-78
2023/12/24 18:01:26;;;;;;;1.30;0.98;;;;;;;11.17;100.00;99080.53;12187271;19;20022;-79
2023/12/24 18:05:30;;;;;;;1.52;0.50;;;;;;;11.16;100.00;99103.72;12212531;19;20473;-79
2023/12/24 18:09:32;;;;;;;2.03;0.60;;;;;;;11.19;100.00;99085.78;12211609;19;20010;-81
2023/12/24 18:13:34;;;;;;;1.17;0.60;;;;;;;11.32;100.00;99134.09;12188183;19;20766;-83
2023/12/24 18:17:37;;;;;;;;;;;;;;;11.24;100.00;99135.44;12209578;19;20054;-81
2023/12/24 18:21:40;;;;;;;2.83;0.82;;;;;;;11.21;100.00;99152.50;12189653;19;19918;-77
2023/12/24 18:25:42;;;;;;;1.87;0.67;;;;;;;11.18;100.00;99126.34;12212361;19;20512;-80
2023/12/24 18:29:45;;;;;;;1.87;0.70;;;;;;;11.11;100.00;99117.47;12204157;19;20023;-78
2023/12/24 18:33:54;;;;;;;5.82;0.88;;;;;;;11.25;100.00;99128.84;12178566;19;20030;-79
2023/12/24 18:37:59;;;;;;;1.98;0.80;;;;;;;11.22;100.00;99142.34;12205937;19;20066;-79
2023/12/24 18:42:04;;;;;;;3.80;1.20;;;;;;;11.25;100.00;99139.88;12206669;19;20006;-80
2023/12/24 18:46:06;;;;;;;3.30;1.17;;;;;;;11.31;100.00;99149.81;12187137;19;20090;-80
2023/12/24 18:50:09;;;;;;;1.98;1.13;;;;;;;11.22;100.00;99154.19;12206260;19;20017;-78